Anning, China
Current Conditions -  °F | °C
As of 2:00 PM on Saturday 29 Nov 2014 (Local Time) from ZPPP Reporting Station
Clear Clear  
Wind Chill: 61°   Ceiling: Unl
Heat Index: 61°   Visibility: 6mi
Dew Point: 36°   Wind: 22mph
Humidity: 39%   Direction: 230°SW
Pressure: 30"   Gusts: NA
Location:  24.9°N, 102.49°E
Report Text: ZPPP 290600Z 23010MPS 210V270 CAVOK 16/02 Q1016 NOSIG
Loading
Personal Weather Stations






























Interactive Weather Map New forecast layout! Learn more

10-Day Weather Forecast

Advertisements
Track Severe Weather on mobile